createdAt,value
2023-02-13T00:00:38.617Z,6.95
2023-02-13T00:02:49.740Z,6.89
2023-02-13T00:04:45.610Z,6.91
2023-02-13T00:06:42.077Z,6.89
2023-02-13T00:08:37.458Z,6.87
2023-02-13T00:10:38.188Z,6.96
2023-02-13T00:12:33.836Z,6.94
2023-02-13T00:14:28.813Z,6.96
2023-02-13T00:16:24.067Z,6.96
2023-02-13T00:18:29.941Z,6.97
2023-02-13T00:20:30.672Z,6.91
2023-02-13T00:22:25.665Z,7.03
2023-02-13T00:24:20.757Z,7.04
2023-02-13T00:26:20.132Z,7.00
2023-02-13T00:28:15.255Z,7.05
2023-02-13T00:30:11.930Z,6.98
2023-02-13T00:32:07.591Z,6.93
2023-02-13T00:34:02.702Z,6.97
2023-02-13T00:36:10.991Z,6.98
2023-02-13T00:38:07.978Z,6.96
2023-02-13T00:40:03.286Z,7.01
2023-02-13T00:42:06.395Z,7.03
2023-02-13T00:44:01.767Z,7.09
2023-02-13T00:46:01.777Z,6.99
2023-02-13T00:47:57.169Z,6.99
2023-02-13T00:49:52.458Z,7.06
2023-02-13T00:51:47.743Z,7.07
2023-02-13T00:53:43.347Z,7.11
2023-02-13T00:55:38.676Z,7.19
2023-02-13T00:57:36.418Z,7.09
2023-02-13T00:59:32.186Z,7.13
2023-02-13T01:01:27.505Z,7.12
2023-02-13T01:03:24.468Z,7.10
2023-02-13T01:05:19.800Z,7.19
2023-02-13T01:07:16.694Z,7.12
2023-02-13T01:09:12.436Z,7.00
2023-02-13T01:11:08.057Z,7.00
2023-02-13T01:13:06.016Z,6.98
2023-02-13T01:15:00.963Z,6.95
2023-02-13T01:16:56.318Z,6.97
2023-02-13T01:19:00.431Z,6.96
2023-02-13T01:21:01.647Z,7.01
2023-02-13T01:22:56.771Z,7.02
2023-02-13T01:24:55.205Z,7.04
2023-02-13T01:26:51.581Z,7.05
2023-02-13T01:28:49.869Z,7.02
2023-02-13T01:30:44.933Z,7.04
2023-02-13T01:32:44.486Z,7.08
2023-02-13T01:34:42.664Z,7.01
2023-02-13T01:36:37.670Z,7.01
2023-02-13T01:38:32.974Z,7.06
2023-02-13T01:40:30.110Z,7.03
2023-02-13T01:42:29.629Z,7.01
2023-02-13T01:44:53.863Z,6.98
2023-02-13T01:46:48.920Z,6.94
2023-02-13T01:48:44.686Z,6.90
2023-02-13T01:50:47.729Z,6.87
2023-02-13T01:52:46.894Z,6.88
2023-02-13T01:54:43.428Z,6.94
2023-02-13T01:56:43.767Z,6.94
2023-02-13T01:58:42.364Z,6.89
2023-02-13T02:00:41.881Z,6.90
2023-02-13T02:02:40.659Z,6.81
2023-02-13T02:04:38.737Z,6.91
2023-02-13T02:06:39.089Z,6.95
2023-02-13T02:08:36.550Z,6.94
2023-02-13T02:10:32.594Z,6.95
2023-02-13T02:12:33.802Z,6.95
2023-02-13T02:14:29.507Z,6.97
2023-02-13T02:16:28.743Z,6.96
2023-02-13T02:18:26.198Z,7.02
2023-02-13T02:20:33.789Z,6.97
2023-02-13T02:23:07.413Z,6.94
2023-02-13T02:25:37.187Z,6.95
2023-02-13T02:27:49.701Z,6.98
2023-02-13T02:30:22.494Z,6.86
2023-02-13T02:32:35.377Z,6.91
2023-02-13T02:34:40.229Z,6.94
2023-02-13T02:36:49.602Z,6.93
2023-02-13T02:39:05.953Z,6.86
2023-02-13T02:41:09.894Z,6.83
2023-02-13T02:43:19.808Z,6.78
2023-02-13T02:45:21.463Z,6.72
2023-02-13T02:47:37.939Z,6.78
2023-02-13T02:49:56.261Z,6.73
2023-02-13T02:52:03.269Z,6.78
2023-02-13T02:54:28.368Z,6.74
2023-02-13T02:56:29.965Z,6.68
2023-02-13T02:58:44.011Z,6.63
2023-02-13T03:00:56.423Z,6.68
2023-02-13T03:03:07.449Z,6.67
2023-02-13T03:05:18.537Z,6.73
2023-02-13T03:07:18.433Z,6.79
2023-02-13T03:09:32.911Z,6.73
2023-02-13T03:11:41.296Z,6.71
2023-02-13T03:13:44.809Z,6.70
2023-02-13T03:16:03.030Z,6.75
2023-02-13T03:18:12.935Z,6.73
2023-02-13T03:20:33.784Z,6.71
2023-02-13T03:22:39.666Z,6.74
2023-02-13T03:24:46.970Z,6.63
2023-02-13T03:26:50.682Z,6.63
2023-02-13T03:29:06.901Z,6.65
2023-02-13T03:31:13.877Z,6.66
2023-02-13T03:33:26.598Z,6.66
2023-02-13T03:35:49.736Z,6.73
2023-02-13T03:37:56.173Z,6.72
2023-02-13T03:40:01.563Z,6.74
2023-02-13T03:42:01.369Z,6.71
2023-02-13T03:44:05.752Z,6.70
2023-02-13T03:46:02.477Z,6.64
2023-02-13T03:47:59.720Z,6.57
2023-02-13T03:50:09.165Z,6.57
2023-02-13T03:52:11.882Z,6.55
2023-02-13T03:54:11.581Z,6.57
2023-02-13T03:56:21.755Z,6.63
2023-02-13T03:58:33.314Z,6.55
2023-02-13T04:00:31.061Z,6.61
2023-02-13T04:02:31.458Z,6.57
2023-02-13T04:04:34.354Z,6.59
2023-02-13T04:06:34.272Z,6.47
2023-02-13T04:08:32.305Z,6.43
2023-02-13T04:10:30.665Z,6.39
2023-02-13T04:12:33.117Z,6.38
2023-02-13T04:14:35.703Z,6.42
2023-02-13T04:16:36.016Z,6.40
2023-02-13T04:18:33.792Z,6.40
2023-02-13T04:20:30.658Z,6.44
2023-02-13T04:22:25.572Z,6.44
2023-02-13T04:24:23.475Z,6.44
2023-02-13T04:26:21.148Z,6.34
2023-02-13T04:28:16.120Z,6.33
2023-02-13T04:30:13.077Z,6.37
2023-02-13T04:32:08.146Z,6.32
2023-02-13T04:34:03.817Z,6.43
2023-02-13T04:35:59.351Z,6.43
2023-02-13T04:37:54.318Z,6.55
2023-02-13T04:39:52.265Z,6.60
2023-02-13T04:41:47.250Z,6.60
2023-02-13T04:43:42.512Z,6.64
2023-02-13T04:45:37.722Z,6.63
2023-02-13T04:47:32.829Z,6.60
2023-02-13T04:49:28.156Z,6.55
2023-02-13T04:51:23.159Z,6.49
2023-02-13T04:53:18.353Z,6.49
2023-02-13T04:55:16.864Z,6.50
2023-02-13T04:57:12.111Z,6.41
2023-02-13T04:59:07.395Z,6.46
2023-02-13T05:01:02.522Z,6.39
2023-02-13T05:03:02.857Z,6.29
2023-02-13T05:04:58.185Z,6.26
2023-02-13T05:06:53.124Z,6.24
2023-02-13T05:08:48.386Z,6.30
2023-02-13T05:10:45.953Z,6.27
2023-02-13T05:12:41.396Z,6.38
2023-02-13T05:14:36.529Z,6.34
2023-02-13T05:16:31.899Z,6.38
2023-02-13T05:18:27.243Z,6.36
2023-02-13T05:20:22.730Z,6.30
2023-02-13T05:22:30.507Z,6.33
2023-02-13T05:24:25.451Z,6.43
2023-02-13T05:26:32.518Z,6.37
2023-02-13T05:28:47.374Z,6.41
2023-02-13T05:30:42.730Z,6.43
2023-02-13T05:32:37.741Z,6.41
2023-02-13T05:34:33.087Z,6.46
2023-02-13T05:36:28.434Z,6.53
2023-02-13T05:38:23.376Z,6.55
2023-02-13T05:40:19.270Z,6.46
2023-02-13T05:42:16.835Z,6.50
2023-02-13T05:44:12.378Z,6.52
2023-02-13T05:46:09.610Z,6.47
2023-02-13T05:48:04.637Z,6.45
2023-02-13T05:49:59.993Z,6.50
2023-02-13T05:51:55.032Z,6.45
2023-02-13T05:53:52.795Z,6.52
2023-02-13T05:55:47.772Z,6.51
2023-02-13T05:57:45.283Z,6.51
2023-02-13T05:59:40.567Z,6.60
2023-02-13T06:01:35.914Z,6.61
2023-02-13T06:03:32.821Z,6.55
2023-02-13T06:05:28.151Z,6.46
2023-02-13T06:07:23.289Z,6.45
2023-02-13T06:09:18.548Z,6.48
2023-02-13T06:11:14.273Z,6.52
2023-02-13T06:13:12.168Z,6.40
2023-02-13T06:15:08.254Z,6.44
2023-02-13T06:17:04.162Z,6.52
2023-02-13T06:18:59.145Z,6.49
2023-02-13T06:20:54.652Z,6.52
2023-02-13T06:22:51.161Z,6.50
2023-02-13T06:24:46.222Z,6.51
2023-02-13T06:26:41.503Z,6.44
2023-02-13T06:28:39.511Z,6.43
2023-02-13T06:30:35.302Z,6.30
2023-02-13T06:32:30.454Z,6.17
2023-02-13T06:34:25.474Z,6.10
2023-02-13T06:36:20.826Z,6.13
2023-02-13T06:38:19.060Z,6.16
2023-02-13T06:40:17.527Z,6.08
2023-02-13T06:42:12.574Z,6.02
2023-02-13T06:44:10.759Z,6.02
2023-02-13T06:46:08.239Z,6.05
2023-02-13T06:48:03.516Z,6.03
2023-02-13T06:49:58.774Z,6.04
2023-02-13T06:51:54.292Z,6.07
2023-02-13T06:53:49.285Z,6.02
2023-02-13T06:55:44.599Z,5.98
2023-02-13T06:57:39.589Z,6.03
2023-02-13T06:59:37.244Z,6.00
2023-02-13T07:01:32.875Z,5.92
2023-02-13T07:03:27.789Z,5.94
2023-02-13T07:05:23.093Z,5.95
2023-02-13T07:07:18.093Z,5.96
2023-02-13T07:09:13.547Z,5.99
2023-02-13T07:11:08.858Z,5.96
2023-02-13T07:13:06.026Z,5.95
2023-02-13T07:15:04.182Z,5.85
2023-02-13T07:16:59.608Z,5.94
2023-02-13T07:18:55.029Z,5.95
2023-02-13T07:20:50.019Z,5.93
2023-02-13T07:22:45.327Z,5.97
2023-02-13T07:24:40.660Z,6.04
2023-02-13T07:26:35.602Z,6.02
2023-02-13T07:28:31.842Z,6.13
2023-02-13T07:30:29.437Z,6.12
2023-02-13T07:32:24.907Z,6.02
2023-02-13T07:34:20.117Z,6.06
2023-02-13T07:36:15.537Z,6.03
2023-02-13T07:38:10.903Z,5.95
2023-02-13T07:40:07.204Z,5.93
2023-02-13T07:42:02.478Z,5.95
2023-02-13T07:43:57.755Z,5.99
2023-02-13T07:45:56.856Z,6.02
2023-02-13T07:47:52.255Z,6.03
2023-02-13T07:49:50.025Z,6.00
2023-02-13T07:51:46.858Z,5.92
2023-02-13T07:53:42.587Z,5.94
2023-02-13T07:55:39.488Z,5.95
2023-02-13T07:57:34.917Z,5.95
2023-02-13T07:59:30.622Z,5.96
2023-02-13T08:01:30.801Z,5.90
2023-02-13T08:03:29.034Z,5.92
2023-02-13T08:05:24.317Z,5.93
2023-02-13T08:07:20.549Z,5.96
2023-02-13T08:09:36.091Z,5.98
2023-02-13T08:11:47.917Z,6.01
2023-02-13T08:13:45.690Z,6.10
2023-02-13T08:15:40.918Z,6.11
2023-02-13T08:17:39.028Z,6.14
2023-02-13T08:19:34.343Z,6.18
2023-02-13T08:21:33.975Z,6.17
2023-02-13T08:23:32.161Z,6.10
2023-02-13T08:25:27.746Z,6.15
2023-02-13T08:27:23.135Z,6.22
2023-02-13T08:29:19.579Z,6.28
2023-02-13T08:31:15.474Z,6.19
2023-02-13T08:33:13.599Z,6.21
2023-02-13T08:35:10.602Z,6.23
2023-02-13T08:37:06.597Z,6.26
2023-02-13T08:39:01.585Z,6.28
2023-02-13T08:40:59.578Z,6.36
2023-02-13T08:43:01.751Z,6.34
2023-02-13T08:44:59.717Z,6.37
2023-02-13T08:46:57.420Z,6.29
2023-02-13T08:48:58.392Z,6.29
2023-02-13T08:50:54.450Z,6.32
2023-02-13T08:52:49.718Z,6.17
2023-02-13T08:54:44.646Z,6.16
2023-02-13T08:56:40.032Z,6.22
2023-02-13T08:58:35.236Z,6.25
2023-02-13T09:00:30.729Z,6.36
2023-02-13T09:02:25.759Z,6.43
2023-02-13T09:04:23.520Z,6.44
2023-02-13T09:06:18.836Z,6.34
2023-02-13T09:08:14.307Z,6.29
2023-02-13T09:10:10.746Z,6.30
2023-02-13T09:12:05.824Z,6.32
2023-02-13T09:14:01.296Z,6.26
2023-02-13T09:15:56.763Z,6.24
2023-02-13T09:17:52.052Z,6.32
2023-02-13T09:19:49.943Z,6.38
2023-02-13T09:21:44.855Z,6.37
2023-02-13T09:23:42.849Z,6.38
2023-02-13T09:25:37.854Z,6.35
2023-02-13T09:27:33.654Z,6.43
2023-02-13T09:29:31.320Z,6.46
2023-02-13T09:31:29.179Z,6.46
2023-02-13T09:33:24.508Z,6.46
2023-02-13T09:35:22.971Z,6.47
2023-02-13T09:37:18.272Z,6.52
2023-02-13T09:39:13.148Z,6.54
2023-02-13T09:41:12.836Z,6.42
2023-02-13T09:43:14.799Z,6.39
2023-02-13T09:45:15.250Z,6.45
2023-02-13T09:47:17.703Z,6.58
2023-02-13T09:49:18.551Z,6.58
2023-02-13T09:51:20.193Z,6.51
2023-02-13T09:53:23.904Z,6.45
2023-02-13T09:55:21.828Z,6.51
2023-02-13T09:57:24.117Z,6.57
2023-02-13T09:59:36.318Z,6.62
2023-02-13T10:01:34.512Z,6.59
2023-02-13T10:03:33.577Z,6.56
2023-02-13T10:05:45.774Z,6.45
2023-02-13T10:07:51.734Z,6.44
2023-02-13T10:09:58.070Z,6.45
2023-02-13T10:12:15.325Z,6.48
2023-02-13T10:14:18.897Z,6.51
2023-02-13T10:16:19.350Z,6.55
2023-02-13T10:18:19.872Z,6.63
2023-02-13T10:20:28.824Z,6.59
2023-02-13T10:22:28.762Z,6.66
2023-02-13T10:24:34.505Z,6.69
2023-02-13T10:26:42.706Z,6.70
2023-02-13T10:28:41.695Z,6.71
2023-02-13T10:30:42.190Z,6.71
2023-02-13T10:32:48.498Z,6.65
2023-02-13T10:34:46.813Z,6.59
2023-02-13T10:36:46.724Z,6.57
2023-02-13T10:38:47.213Z,6.60
2023-02-13T10:41:06.765Z,6.59
2023-02-13T10:43:10.518Z,6.61
2023-02-13T10:45:22.718Z,6.59
2023-02-13T10:47:36.619Z,6.65
2023-02-13T10:49:45.539Z,6.77
2023-02-13T10:51:48.084Z,6.82
2023-02-13T10:53:56.722Z,6.87
2023-02-13T10:56:23.303Z,6.93
2023-02-13T10:58:22.781Z,6.86
2023-02-13T11:00:27.810Z,6.97
2023-02-13T11:02:28.434Z,6.98
2023-02-13T11:04:23.958Z,7.11
2023-02-13T11:06:21.296Z,7.19
2023-02-13T11:08:23.096Z,7.12
2023-02-13T11:10:21.326Z,7.06
2023-02-13T11:12:30.437Z,7.09
2023-02-13T11:14:26.902Z,7.06
2023-02-13T11:16:22.209Z,7.06
2023-02-13T11:18:22.641Z,7.08
2023-02-13T11:20:31.081Z,7.13
2023-02-13T11:22:34.973Z,7.00
2023-02-13T11:24:32.385Z,6.97
2023-02-13T11:26:34.256Z,7.05
2023-02-13T11:28:36.855Z,6.96
2023-02-13T11:30:35.803Z,6.94
2023-02-13T11:32:31.767Z,7.08
2023-02-13T11:34:29.204Z,7.16
2023-02-13T11:36:30.850Z,7.04
2023-02-13T11:38:27.014Z,7.09
2023-02-13T11:40:33.753Z,7.08
2023-02-13T11:42:41.714Z,6.97
2023-02-13T11:44:43.961Z,7.07
2023-02-13T11:46:57.410Z,7.23
2023-02-13T11:49:06.696Z,7.15
2023-02-13T11:51:04.694Z,7.14
2023-02-13T11:53:03.118Z,7.19
2023-02-13T11:55:00.504Z,7.23
2023-02-13T11:57:06.227Z,7.26
2023-02-13T11:59:06.329Z,7.26
2023-02-13T12:01:31.864Z,7.28
2023-02-13T12:03:33.487Z,7.29
2023-02-13T12:05:30.577Z,7.38
2023-02-13T12:07:28.967Z,7.38
2023-02-13T12:09:24.572Z,7.31
2023-02-13T12:11:25.137Z,7.16
2023-02-13T12:13:30.262Z,7.13
2023-02-13T12:15:29.042Z,7.20
2023-02-13T12:17:32.648Z,7.15
2023-02-13T12:19:34.585Z,7.14
2023-02-13T12:21:44.688Z,7.14
2023-02-13T12:23:49.169Z,7.20
2023-02-13T12:25:57.076Z,7.27
2023-02-13T12:28:01.394Z,7.33
2023-02-13T12:30:12.168Z,7.30
2023-02-13T12:32:20.519Z,7.39
2023-02-13T12:34:52.421Z,7.45
2023-02-13T12:37:01.054Z,7.47
2023-02-13T12:39:14.879Z,7.41
2023-02-13T12:41:19.410Z,7.43
2023-02-13T12:43:32.743Z,7.41
2023-02-13T12:45:37.843Z,7.25
2023-02-13T12:47:39.035Z,7.29
2023-02-13T12:49:55.703Z,7.20
2023-02-13T12:52:11.974Z,7.35
2023-02-13T12:54:38.900Z,7.27
2023-02-13T12:57:06.995Z,7.41
2023-02-13T12:59:12.412Z,7.31
2023-02-13T13:01:20.921Z,7.35
2023-02-13T13:03:38.547Z,7.32
2023-02-13T13:06:03.554Z,7.31
2023-02-13T13:08:40.536Z,7.42
2023-02-13T13:10:51.488Z,7.32
2023-02-13T13:12:56.914Z,7.49
2023-02-13T13:14:59.263Z,7.53
2023-02-13T13:17:02.780Z,7.51
2023-02-13T13:19:12.910Z,7.51
2023-02-13T13:25:46.312Z,7.58
2023-02-13T13:30:53.182Z,7.35
2023-02-13T13:33:29.810Z,7.45
2023-02-13T13:39:23.053Z,7.63
2023-02-13T13:41:30.803Z,7.65
2023-02-13T13:43:35.761Z,7.63
2023-02-13T13:45:40.284Z,7.64
2023-02-13T13:47:57.198Z,7.62
2023-02-13T13:49:56.701Z,7.51
2023-02-13T13:51:52.436Z,7.42
2023-02-13T13:54:17.222Z,7.55
2023-02-13T13:56:16.070Z,7.55
2023-02-13T13:58:24.670Z,7.61
2023-02-13T14:00:31.504Z,7.69
2023-02-13T14:02:45.938Z,7.72
2023-02-13T14:04:43.687Z,7.75
2023-02-13T14:07:20.367Z,7.71
2023-02-13T14:09:41.556Z,7.68
2023-02-13T14:11:42.360Z,7.70
2023-02-13T14:13:45.982Z,7.65
2023-02-13T14:15:58.603Z,7.60
2023-02-13T14:18:04.343Z,7.60
2023-02-13T14:20:04.510Z,7.53
2023-02-13T14:22:32.162Z,7.52
2023-02-13T14:24:29.098Z,7.55
2023-02-13T14:26:41.840Z,7.64
2023-02-13T14:28:37.351Z,7.66
2023-02-13T14:30:38.042Z,7.70
2023-02-13T14:32:42.060Z,7.73
2023-02-13T14:34:40.608Z,7.76
2023-02-13T14:36:56.641Z,7.70
2023-02-13T14:38:59.201Z,7.66
2023-02-13T14:40:58.000Z,7.54
2023-02-13T14:43:00.538Z,7.53
2023-02-13T14:44:59.362Z,7.51
2023-02-13T14:47:04.950Z,7.53
2023-02-13T14:49:06.562Z,7.55
2023-02-13T14:51:02.458Z,7.61
2023-02-13T14:53:01.868Z,7.64
2023-02-13T14:55:05.772Z,7.51
2023-02-13T14:57:11.419Z,7.52
2023-02-13T14:59:20.395Z,7.51
2023-02-13T15:01:31.302Z,7.51
2023-02-13T15:03:35.845Z,7.51
2023-02-13T15:05:36.057Z,7.51
2023-02-13T15:08:00.206Z,7.55
2023-02-13T15:10:03.710Z,7.52
2023-02-13T15:12:06.212Z,7.56
2023-02-13T15:14:37.973Z,7.59
2023-02-13T15:17:49.288Z,7.61
2023-02-13T15:20:09.610Z,7.62
2023-02-13T15:22:25.447Z,7.53
2023-02-13T15:24:33.312Z,7.39
2023-02-13T15:26:33.774Z,7.40
2023-02-13T15:28:39.869Z,7.39
2023-02-13T15:30:44.516Z,7.35
2023-02-13T15:32:42.946Z,7.38
2023-02-13T15:34:51.264Z,7.30
2023-02-13T15:36:49.577Z,7.21
2023-02-13T15:38:47.911Z,7.25
2023-02-13T15:40:49.027Z,7.10
2023-02-13T15:42:47.440Z,7.09
2023-02-13T15:44:50.820Z,7.08
2023-02-13T15:46:48.167Z,7.20
2023-02-13T15:48:53.375Z,7.13
2023-02-13T15:51:01.340Z,7.04
2023-02-13T15:53:05.661Z,7.09
2023-02-13T15:55:02.879Z,6.96
2023-02-13T15:57:48.992Z,6.94
2023-02-13T16:06:23.818Z,6.96
2023-02-13T16:08:59.052Z,7.00
2023-02-13T16:11:31.945Z,7.09
2023-02-13T16:13:27.476Z,7.12
2023-02-13T16:15:25.873Z,7.08
2023-02-13T16:17:31.798Z,7.03
2023-02-13T16:19:34.319Z,6.94
2023-02-13T16:21:35.939Z,6.98
2023-02-13T16:23:41.621Z,6.97
2023-02-13T16:25:39.404Z,7.04
2023-02-13T16:27:38.002Z,7.01
2023-02-13T16:29:36.227Z,6.99
2023-02-13T16:31:33.426Z,7.05
2023-02-13T16:33:31.982Z,7.11
2023-02-13T16:35:38.997Z,7.21
2023-02-13T16:37:36.822Z,7.03
2023-02-13T16:39:42.291Z,7.03
2023-02-13T16:41:37.404Z,7.02
2023-02-13T16:43:40.699Z,6.97
2023-02-13T16:45:35.776Z,6.87
2023-02-13T16:47:33.476Z,6.83
2023-02-13T16:49:31.982Z,6.85
2023-02-13T16:51:37.598Z,6.93
2023-02-13T16:53:41.780Z,6.92
2023-02-13T16:55:37.580Z,6.94
2023-02-13T16:57:35.799Z,7.02
2023-02-13T16:59:37.649Z,7.12
2023-02-13T17:01:33.358Z,7.08
2023-02-13T17:03:29.051Z,7.13
2023-02-13T17:05:27.165Z,7.18
2023-02-13T17:07:28.372Z,7.14
2023-02-13T17:09:28.829Z,7.06
2023-02-13T17:11:24.558Z,7.10
2023-02-13T17:13:20.673Z,7.17
2023-02-13T17:15:17.299Z,7.22
2023-02-13T17:17:20.578Z,7.22
2023-02-13T17:19:17.170Z,7.08
2023-02-13T17:21:12.742Z,7.08
2023-02-13T17:23:09.694Z,7.04
2023-02-13T17:25:15.371Z,6.98
2023-02-13T17:27:10.492Z,7.05
2023-02-13T17:29:06.017Z,7.10
2023-02-13T17:31:03.295Z,7.05
2023-02-13T17:33:03.985Z,7.09
2023-02-13T17:35:02.841Z,7.13
2023-02-13T17:37:00.540Z,7.12
2023-02-13T17:38:55.939Z,7.13
2023-02-13T17:40:59.319Z,7.14
2023-02-13T17:42:59.147Z,7.10
2023-02-13T17:44:55.167Z,7.06
2023-02-13T17:46:50.163Z,7.10
2023-02-13T17:48:48.660Z,7.14
2023-02-13T17:50:43.951Z,7.17
2023-02-13T17:52:39.978Z,7.14
2023-02-13T17:54:36.072Z,7.18
2023-02-13T17:56:33.874Z,7.23
2023-02-13T17:58:31.386Z,7.21
2023-02-13T18:00:28.346Z,7.13
2023-02-13T18:02:28.648Z,7.06
2023-02-13T18:04:24.207Z,7.02
2023-02-13T18:06:22.262Z,6.89
2023-02-13T18:08:17.794Z,6.99
2023-02-13T18:10:16.042Z,7.09
2023-02-13T18:12:21.433Z,7.08
2023-02-13T18:14:16.881Z,7.06
2023-02-13T18:16:13.034Z,7.06
2023-02-13T18:18:08.702Z,7.09
2023-02-13T18:20:04.015Z,7.09
2023-02-13T18:21:58.994Z,7.10
2023-02-13T18:23:55.341Z,7.13
2023-02-13T18:25:50.463Z,7.06
2023-02-13T18:27:48.686Z,7.02
2023-02-13T18:29:44.251Z,7.06
2023-02-13T18:31:39.469Z,7.04
2023-02-13T18:33:34.893Z,6.97
2023-02-13T18:35:32.434Z,6.99
2023-02-13T18:37:29.406Z,7.01
2023-02-13T18:39:24.555Z,6.99
2023-02-13T18:41:20.049Z,6.97
2023-02-13T18:43:17.663Z,6.99
2023-02-13T18:45:14.676Z,7.00
2023-02-13T18:47:10.062Z,6.96
2023-02-13T18:49:08.838Z,6.91
2023-02-13T18:51:04.279Z,6.87
2023-02-13T18:52:59.643Z,6.97
2023-02-13T18:54:54.758Z,7.00
2023-02-13T18:56:50.406Z,7.00
2023-02-13T18:58:48.070Z,6.98
2023-02-13T19:00:43.513Z,6.98
2023-02-13T19:02:38.637Z,6.97
2023-02-13T19:04:35.995Z,6.99
2023-02-13T19:06:31.304Z,7.03
2023-02-13T19:08:26.657Z,7.01
2023-02-13T19:10:22.618Z,7.02
2023-02-13T19:12:18.037Z,7.01
2023-02-13T19:14:16.877Z,7.00
2023-02-13T19:16:15.609Z,7.00
2023-02-13T19:18:11.393Z,7.00
2023-02-13T19:20:07.449Z,6.92
2023-02-13T19:22:03.008Z,6.96
2023-02-13T19:23:58.613Z,6.95
2023-02-13T19:25:54.079Z,6.96
2023-02-13T19:27:49.232Z,6.99
2023-02-13T19:29:47.460Z,7.02
2023-02-13T19:31:42.629Z,6.99
2023-02-13T19:33:38.392Z,6.98
2023-02-13T19:35:33.449Z,6.90
2023-02-13T19:37:35.797Z,6.91
2023-02-13T19:39:37.375Z,6.92
2023-02-13T19:41:33.906Z,6.93
2023-02-13T19:43:29.062Z,6.92
2023-02-13T19:45:26.742Z,6.95
2023-02-13T19:47:22.472Z,6.91
2023-02-13T19:49:19.018Z,6.86
2023-02-13T19:51:16.533Z,6.87
2023-02-13T19:53:11.719Z,6.89
2023-02-13T19:55:07.114Z,6.89
2023-02-13T19:57:07.366Z,6.87
2023-02-13T19:59:02.408Z,6.76
2023-02-13T20:01:09.104Z,6.79
2023-02-13T20:03:05.278Z,6.81
2023-02-13T20:05:00.838Z,6.83
2023-02-13T20:06:58.470Z,6.84
2023-02-13T20:08:54.896Z,6.86
2023-02-13T20:10:50.178Z,6.73
2023-02-13T20:12:45.203Z,6.82
2023-02-13T20:14:40.624Z,6.80
2023-02-13T20:16:38.355Z,6.77
2023-02-13T20:18:33.907Z,6.84
2023-02-13T20:20:32.061Z,6.81
2023-02-13T20:22:27.488Z,6.79
2023-02-13T20:24:22.535Z,6.81
2023-02-13T20:26:18.358Z,6.80
2023-02-13T20:28:13.594Z,6.87
2023-02-13T20:30:10.435Z,6.80
2023-02-13T20:32:08.574Z,6.80
2023-02-13T20:34:04.414Z,6.74
2023-02-13T20:36:01.858Z,6.76
2023-02-13T20:37:58.936Z,6.70
2023-02-13T20:49:49.899Z,6.73
2023-02-13T20:52:53.899Z,6.75
2023-02-13T20:55:37.709Z,6.72
2023-02-13T20:58:34.820Z,6.73
2023-02-13T21:05:59.341Z,6.60
2023-02-13T21:08:37.486Z,6.68
2023-02-13T21:11:33.682Z,6.70
2023-02-13T21:13:32.814Z,6.65
2023-02-13T21:15:28.086Z,6.66
2023-02-13T21:17:23.483Z,6.68
2023-02-13T21:19:23.009Z,6.67
2023-02-13T21:21:18.726Z,6.71
2023-02-13T21:23:15.851Z,6.73
2023-02-13T21:25:43.634Z,6.73
2023-02-13T21:28:16.616Z,6.72
2023-02-13T21:36:13.256Z,6.70
2023-02-13T21:39:09.611Z,6.67
2023-02-13T21:44:47.914Z,6.56
2023-02-13T21:47:53.503Z,6.59
2023-02-13T21:53:38.383Z,6.62
2023-02-13T21:55:45.839Z,6.58
2023-02-13T21:57:41.907Z,6.57
2023-02-13T21:59:37.066Z,6.55
2023-02-13T22:01:35.698Z,6.57
2023-02-13T22:03:33.512Z,6.62
2023-02-13T22:05:31.261Z,6.66
2023-02-13T22:07:38.236Z,6.70
2023-02-13T22:10:18.633Z,6.69
2023-02-13T22:13:07.737Z,6.65
2023-02-13T22:15:53.113Z,6.60
2023-02-13T22:18:09.920Z,6.60
2023-02-13T22:23:22.667Z,6.56
2023-02-13T22:26:00.139Z,6.60
2023-02-13T22:28:15.344Z,6.57
2023-02-13T22:31:09.287Z,6.54
2023-02-13T22:33:47.544Z,6.52
2023-02-13T22:36:43.354Z,6.57
2023-02-13T22:39:00.059Z,6.58
2023-02-13T22:41:14.701Z,6.60
2023-02-13T22:43:11.904Z,6.61
2023-02-13T22:45:27.146Z,6.63
2023-02-13T22:47:29.956Z,6.62
2023-02-13T22:49:47.411Z,6.63
2023-02-13T22:52:19.723Z,6.65
2023-02-13T22:54:56.284Z,6.65
2023-02-13T22:57:25.858Z,6.63
2023-02-13T22:59:40.856Z,6.61
2023-02-13T23:01:53.582Z,6.59
2023-02-13T23:04:44.617Z,6.57
2023-02-13T23:07:03.556Z,6.57
2023-02-13T23:09:19.014Z,6.56
2023-02-13T23:12:12.015Z,6.54
2023-02-13T23:14:53.013Z,6.53
2023-02-13T23:17:32.428Z,6.53
2023-02-13T23:19:49.355Z,6.57
2023-02-13T23:21:56.854Z,6.59
2023-02-13T23:24:17.078Z,6.59
2023-02-13T23:26:36.429Z,6.59
2023-02-13T23:28:59.137Z,6.58
2023-02-13T23:31:44.229Z,6.56
2023-02-13T23:34:09.564Z,6.56
2023-02-13T23:36:28.396Z,6.52
2023-02-13T23:42:13.496Z,6.50
2023-02-13T23:44:55.062Z,6.52
2023-02-13T23:47:09.938Z,6.51
2023-02-13T23:49:33.576Z,6.51
2023-02-13T23:51:58.477Z,6.52
2023-02-13T23:58:08.477Z,6.55
